createdAt,value
2023-01-21T00:01:09.223Z,44.57
2023-01-21T00:03:36.985Z,42.60
2023-01-21T00:06:05.364Z,45.77
2023-01-21T00:08:33.364Z,48.30
2023-01-21T00:11:06.005Z,49.30
2023-01-21T00:13:36.388Z,46.53
2023-01-21T00:16:04.258Z,44.73
2023-01-21T00:18:31.891Z,49.60
2023-01-21T00:20:59.533Z,43.70
2023-01-21T00:23:28.203Z,48.83
2023-01-21T00:25:58.634Z,37.87
2023-01-21T00:28:28.852Z,43.90
2023-01-21T00:30:59.307Z,39.53
2023-01-21T00:33:27.088Z,42.20
2023-01-21T00:35:59.674Z,44.33
2023-01-21T00:38:27.254Z,40.23
2023-01-21T00:41:00.365Z,43.60
2023-01-21T00:43:28.405Z,40.20
2023-01-21T00:45:56.034Z,48.57
2023-01-21T00:48:25.726Z,45.33
2023-01-21T00:50:55.766Z,42.60
2023-01-21T00:53:24.087Z,40.90
2023-01-21T00:55:51.668Z,44.50
2023-01-21T00:58:19.446Z,36.37
2023-01-21T01:00:47.088Z,38.40
2023-01-21T01:03:14.679Z,39.60
2023-01-21T01:05:43.576Z,44.30
2023-01-21T01:08:11.140Z,39.83
2023-01-21T01:10:38.683Z,38.30
2023-01-21T01:13:06.311Z,39.07
2023-01-21T01:15:33.911Z,38.73
2023-01-21T01:18:01.449Z,42.23
2023-01-21T01:20:29.335Z,44.63
2023-01-21T01:22:58.254Z,39.00
2023-01-21T01:25:25.965Z,40.93
2023-01-21T01:27:53.474Z,37.77
2023-01-21T01:30:21.283Z,37.33
2023-01-21T01:32:48.875Z,38.20
2023-01-21T01:35:16.699Z,45.17
2023-01-21T01:37:44.293Z,37.70
2023-01-21T01:40:14.713Z,37.40
2023-01-21T01:42:42.412Z,34.43
2023-01-21T01:45:20.104Z,35.93
2023-01-21T01:47:58.042Z,35.70
2023-01-21T01:50:29.786Z,36.50
2023-01-21T01:53:00.110Z,29.47
2023-01-21T01:55:29.993Z,35.93
2023-01-21T01:57:58.703Z,34.30
2023-01-21T02:00:27.125Z,35.40
2023-01-21T02:03:13.097Z,33.00
2023-01-21T02:05:42.963Z,36.70
2023-01-21T02:08:11.815Z,38.07
2023-01-21T02:10:41.107Z,36.50
2023-01-21T02:13:08.859Z,33.63
2023-01-21T02:15:41.967Z,36.73
2023-01-21T02:18:18.723Z,35.47
2023-01-21T02:21:12.581Z,37.50
2023-01-21T02:24:00.432Z,34.87
2023-01-21T02:27:06.496Z,36.23
2023-01-21T02:30:01.201Z,33.83
2023-01-21T02:33:04.879Z,40.07
2023-01-21T02:35:42.155Z,30.67
2023-01-21T02:38:20.282Z,37.43
2023-01-21T02:40:57.740Z,34.73
2023-01-21T02:43:33.376Z,32.63
2023-01-21T02:46:07.602Z,32.00
2023-01-21T02:48:40.400Z,28.57
2023-01-21T02:51:09.399Z,28.87
2023-01-21T02:53:38.215Z,33.73
2023-01-21T02:56:09.927Z,30.63
2023-01-21T02:58:43.329Z,32.30
2023-01-21T03:01:21.769Z,25.73
2023-01-21T03:04:23.504Z,27.00
2023-01-21T03:07:02.143Z,31.37
2023-01-21T03:09:31.417Z,25.90
2023-01-21T03:12:22.598Z,25.30
2023-01-21T03:15:14.777Z,27.87
2023-01-21T03:17:47.583Z,31.87
2023-01-21T03:20:21.239Z,29.63
2023-01-21T03:22:54.783Z,27.90
2023-01-21T03:25:23.508Z,27.67
2023-01-21T03:27:53.181Z,33.07
2023-01-21T03:30:23.501Z,28.50
2023-01-21T03:32:53.548Z,25.07
2023-01-21T03:35:24.797Z,30.07
2023-01-21T03:37:59.544Z,28.70
2023-01-21T03:40:29.695Z,28.03
2023-01-21T03:42:57.596Z,26.90
2023-01-21T03:45:35.837Z,29.13
2023-01-21T03:48:13.390Z,33.07
2023-01-21T03:50:45.126Z,25.87
2023-01-21T03:53:14.586Z,26.77
2023-01-21T03:55:42.193Z,22.93
2023-01-21T03:58:09.894Z,26.23
2023-01-21T04:00:38.333Z,27.10
2023-01-21T04:03:06.263Z,30.57
2023-01-21T04:05:35.252Z,27.70
2023-01-21T04:08:03.282Z,31.43
2023-01-21T04:10:35.021Z,25.60
2023-01-21T04:13:02.733Z,30.77
2023-01-21T04:15:30.348Z,28.97
2023-01-21T04:17:59.093Z,29.00
2023-01-21T04:20:26.801Z,29.73
2023-01-21T04:22:54.388Z,28.87
2023-01-21T04:25:22.015Z,28.23
2023-01-21T04:27:50.964Z,25.47
2023-01-21T04:30:20.117Z,28.50
2023-01-21T04:32:47.936Z,26.47
2023-01-21T04:35:15.647Z,27.77
2023-01-21T04:37:43.173Z,29.53
2023-01-21T04:40:12.970Z,33.47
2023-01-21T04:42:41.285Z,29.53
2023-01-21T04:45:11.335Z,30.37
2023-01-21T04:47:41.892Z,25.83
2023-01-21T04:50:11.504Z,24.17
2023-01-21T04:52:39.897Z,28.47
2023-01-21T04:55:08.792Z,31.73
2023-01-21T04:57:36.391Z,31.97
2023-01-21T05:00:06.458Z,26.97
2023-01-21T05:02:36.105Z,24.13
2023-01-21T05:05:03.945Z,23.43
2023-01-21T05:07:31.519Z,32.03
2023-01-21T05:09:59.136Z,24.07
2023-01-21T05:12:27.340Z,24.50
2023-01-21T05:14:55.343Z,35.37
2023-01-21T05:17:22.914Z,27.93
2023-01-21T05:19:51.943Z,22.90
2023-01-21T05:22:19.830Z,30.27
2023-01-21T05:24:47.431Z,26.57
2023-01-21T05:27:15.842Z,25.27
2023-01-21T05:29:44.083Z,25.53
2023-01-21T05:32:11.645Z,26.20
2023-01-21T05:34:39.234Z,24.70
2023-01-21T05:37:08.167Z,29.10
2023-01-21T05:39:35.753Z,28.43
2023-01-21T05:42:03.332Z,29.13
2023-01-21T05:44:30.909Z,28.07
2023-01-21T05:46:58.496Z,22.47
2023-01-21T05:49:26.053Z,24.87
2023-01-21T05:51:53.609Z,28.33
2023-01-21T05:54:22.505Z,25.77
2023-01-21T05:56:50.071Z,30.87
2023-01-21T05:59:17.659Z,30.17
2023-01-21T06:01:45.243Z,25.37
2023-01-21T06:04:14.975Z,30.63
2023-01-21T06:06:42.569Z,25.23
2023-01-21T06:09:11.042Z,28.73
2023-01-21T06:11:39.947Z,28.90
2023-01-21T06:14:07.498Z,28.90
2023-01-21T06:16:35.101Z,26.33
2023-01-21T06:19:04.821Z,27.07
2023-01-21T06:21:32.469Z,28.90
2023-01-21T06:24:00.614Z,32.90
2023-01-21T06:26:28.230Z,34.40
2023-01-21T06:28:58.314Z,28.67
2023-01-21T06:31:25.996Z,29.40
2023-01-21T06:33:54.854Z,31.80
2023-01-21T06:36:23.451Z,28.90
2023-01-21T06:38:51.273Z,29.27
2023-01-21T06:41:19.886Z,31.73
2023-01-21T06:43:47.418Z,33.20
2023-01-21T06:46:16.943Z,33.17
2023-01-21T06:48:44.465Z,31.17
2023-01-21T06:51:12.179Z,31.83
2023-01-21T06:53:39.870Z,25.27
2023-01-21T06:56:08.091Z,28.97
2023-01-21T06:58:35.670Z,32.07
2023-01-21T07:01:03.338Z,34.57
2023-01-21T07:03:32.295Z,32.87
2023-01-21T07:06:00.014Z,29.90
2023-01-21T07:08:27.695Z,29.93
2023-01-21T07:10:55.377Z,28.77
2023-01-21T07:13:23.343Z,34.07
2023-01-21T07:15:51.493Z,37.83
2023-01-21T07:18:21.440Z,38.13
2023-01-21T07:20:50.446Z,31.27
2023-01-21T07:23:18.123Z,37.07
2023-01-21T07:25:46.394Z,35.30
2023-01-21T07:28:14.013Z,29.90
2023-01-21T07:30:42.167Z,35.20
2023-01-21T07:33:10.451Z,30.90
2023-01-21T07:35:38.182Z,27.97
2023-01-21T07:38:07.458Z,26.70
2023-01-21T07:40:35.100Z,31.23
2023-01-21T07:43:02.695Z,26.50
2023-01-21T07:45:33.030Z,29.33
2023-01-21T07:48:00.870Z,31.07
2023-01-21T07:50:28.848Z,31.50
2023-01-21T07:52:56.492Z,24.53
2023-01-21T07:55:25.456Z,23.77
2023-01-21T07:57:53.251Z,29.93
2023-01-21T08:00:22.729Z,29.23
2023-01-21T08:02:51.803Z,36.67
2023-01-21T08:05:19.706Z,31.23
2023-01-21T08:07:47.619Z,33.10
2023-01-21T08:10:16.044Z,33.67
2023-01-21T08:12:45.381Z,27.87
2023-01-21T08:15:13.708Z,26.10
2023-01-21T08:17:44.696Z,30.67
2023-01-21T08:20:13.256Z,32.57
2023-01-21T08:22:40.922Z,28.27
2023-01-21T08:25:09.316Z,25.57
2023-01-21T08:27:36.996Z,30.77
2023-01-21T08:30:07.361Z,32.17
2023-01-21T08:32:35.234Z,37.63
2023-01-21T08:35:03.119Z,34.60
2023-01-21T08:37:30.848Z,31.07
2023-01-21T08:39:58.644Z,26.33
2023-01-21T08:42:26.336Z,33.87
2023-01-21T08:44:54.078Z,29.90
2023-01-21T08:47:23.915Z,30.63
2023-01-21T08:49:51.851Z,28.17
2023-01-21T08:52:21.468Z,28.90
2023-01-21T08:54:50.790Z,34.30
2023-01-21T08:57:18.651Z,30.90
2023-01-21T08:59:46.501Z,30.63
2023-01-21T09:02:14.255Z,29.27
2023-01-21T09:04:43.302Z,32.40
2023-01-21T09:07:11.056Z,29.60
2023-01-21T09:09:39.031Z,33.47
2023-01-21T09:12:08.828Z,31.33
2023-01-21T09:14:36.877Z,27.93
2023-01-21T09:17:04.585Z,25.73
2023-01-21T09:19:32.247Z,29.83
2023-01-21T09:22:01.319Z,30.40
2023-01-21T09:24:29.131Z,28.03
2023-01-21T09:26:56.828Z,31.13
2023-01-21T09:29:25.085Z,29.73
2023-01-21T09:31:53.364Z,26.60
2023-01-21T09:34:20.990Z,31.57
2023-01-21T09:36:48.612Z,31.97
2023-01-21T09:39:18.849Z,27.10
2023-01-21T09:41:50.908Z,27.50
2023-01-21T09:44:25.519Z,24.90
2023-01-21T09:46:59.400Z,25.60
2023-01-21T09:49:31.583Z,28.77
2023-01-21T09:52:07.452Z,29.10
2023-01-21T09:54:38.066Z,30.10
2023-01-21T09:57:31.420Z,30.47
2023-01-21T10:00:20.172Z,24.83
2023-01-21T10:02:58.906Z,32.00
2023-01-21T10:06:03.533Z,24.17
2023-01-21T10:08:38.401Z,28.43
2023-01-21T10:11:24.820Z,29.07
2023-01-21T10:14:13.785Z,31.40
2023-01-21T10:16:55.054Z,21.37
2023-01-21T10:19:29.119Z,24.90
2023-01-21T10:22:03.447Z,28.07
2023-01-21T10:24:38.672Z,27.77
2023-01-21T10:27:15.852Z,25.70
2023-01-21T10:29:44.523Z,23.83
2023-01-21T10:32:18.174Z,29.70
2023-01-21T10:34:50.960Z,32.60
2023-01-21T10:37:26.862Z,22.40
2023-01-21T10:40:02.910Z,33.70
2023-01-21T10:42:51.597Z,24.47
2023-01-21T10:45:33.070Z,26.00
2023-01-21T10:48:06.727Z,28.17
2023-01-21T10:50:43.860Z,27.90
2023-01-21T10:53:19.999Z,31.80
2023-01-21T10:56:01.610Z,29.53
2023-01-21T10:58:35.925Z,27.97
2023-01-21T11:01:07.837Z,34.47
2023-01-21T11:03:41.127Z,24.00
2023-01-21T11:06:12.436Z,27.73
2023-01-21T11:08:43.824Z,32.57
2023-01-21T11:11:12.370Z,28.20
2023-01-21T11:13:41.792Z,33.40
2023-01-21T11:16:09.676Z,28.07
2023-01-21T11:18:39.523Z,34.17
2023-01-21T11:21:19.468Z,22.80
2023-01-21T11:23:55.153Z,29.20
2023-01-21T11:26:27.415Z,33.87
2023-01-21T11:29:12.706Z,29.93
2023-01-21T11:31:41.542Z,29.00
2023-01-21T11:34:14.979Z,28.30
2023-01-21T11:36:58.544Z,28.73
2023-01-21T11:39:27.575Z,25.30
2023-01-21T11:41:57.900Z,28.30
2023-01-21T11:44:26.767Z,23.83
2023-01-21T11:46:54.540Z,32.77
2023-01-21T11:49:33.496Z,25.20
2023-01-21T11:52:16.075Z,28.83
2023-01-21T11:54:44.478Z,30.20
2023-01-21T11:57:34.288Z,27.60
2023-01-21T12:00:20.599Z,21.77
2023-01-21T12:02:52.790Z,26.90
2023-01-21T12:05:29.306Z,17.40
2023-01-21T12:07:57.476Z,22.07
2023-01-21T12:10:31.535Z,24.40
2023-01-21T12:13:16.165Z,23.70
2023-01-21T12:15:56.459Z,25.10
2023-01-21T12:18:38.775Z,25.37
2023-01-21T12:21:11.213Z,30.20
2023-01-21T12:23:52.727Z,24.73
2023-01-21T12:26:35.294Z,23.17
2023-01-21T12:29:29.047Z,23.00
2023-01-21T12:32:02.726Z,24.63
2023-01-21T12:34:36.122Z,19.03
2023-01-21T12:37:11.334Z,22.87
2023-01-21T12:39:39.206Z,25.03
2023-01-21T12:42:12.408Z,23.10
2023-01-21T12:44:46.419Z,23.97
2023-01-21T12:47:27.026Z,22.13
2023-01-21T12:50:05.192Z,20.37
2023-01-21T12:52:41.991Z,17.67
2023-01-21T12:55:18.875Z,18.60
2023-01-21T12:57:53.406Z,23.90
2023-01-21T13:00:24.473Z,22.43
2023-01-21T13:03:10.736Z,28.00
2023-01-21T13:05:45.163Z,21.03
2023-01-21T13:08:32.218Z,18.03
2023-01-21T13:11:06.876Z,22.53
2023-01-21T13:13:39.268Z,22.07
2023-01-21T13:16:10.058Z,26.37
2023-01-21T13:18:42.444Z,20.23
2023-01-21T13:21:26.380Z,23.50
2023-01-21T13:24:02.891Z,25.50
2023-01-21T13:26:38.299Z,18.90
2023-01-21T13:29:13.028Z,23.27
2023-01-21T13:31:48.455Z,19.93
2023-01-21T13:34:27.689Z,20.40
2023-01-21T13:37:10.496Z,23.63
2023-01-21T13:39:49.463Z,20.00
2023-01-21T13:42:30.036Z,21.50
2023-01-21T13:45:17.689Z,19.53
2023-01-21T13:48:16.063Z,20.30
2023-01-21T13:50:58.186Z,17.90
2023-01-21T13:53:49.979Z,15.33
2023-01-21T13:56:31.752Z,20.43
2023-01-21T13:59:06.013Z,20.23
2023-01-21T14:01:44.084Z,17.73
2023-01-21T14:04:16.157Z,24.47
2023-01-21T14:06:52.937Z,18.70
2023-01-21T14:09:24.771Z,20.30
2023-01-21T14:11:59.743Z,23.43
2023-01-21T14:14:44.418Z,20.07
2023-01-21T14:17:42.509Z,18.30
2023-01-21T14:20:34.601Z,20.77
2023-01-21T14:23:27.493Z,21.27
2023-01-21T14:26:12.661Z,22.10
2023-01-21T14:28:52.649Z,22.83
2023-01-21T14:31:25.396Z,22.13
2023-01-21T14:33:58.491Z,20.43
2023-01-21T14:36:37.741Z,20.37
2023-01-21T14:39:15.939Z,24.70
2023-01-21T14:42:01.948Z,29.40
2023-01-21T14:45:03.083Z,19.17
2023-01-21T14:47:53.195Z,23.80
2023-01-21T14:50:47.206Z,26.43
2023-01-21T14:53:21.732Z,27.43
2023-01-21T14:56:10.643Z,24.33
2023-01-21T14:58:39.459Z,23.47
2023-01-21T15:01:07.909Z,29.80
2023-01-21T15:03:48.717Z,24.13
2023-01-21T15:06:21.230Z,26.73
2023-01-21T15:08:52.385Z,21.73
2023-01-21T15:11:24.296Z,25.33
2023-01-21T15:14:07.410Z,24.27
2023-01-21T15:16:36.980Z,29.27
2023-01-21T15:19:24.964Z,28.43
2023-01-21T15:22:18.467Z,29.43
2023-01-21T15:25:19.691Z,30.03
2023-01-21T15:28:36.713Z,24.50
2023-01-21T15:31:08.562Z,25.93
2023-01-21T15:33:58.076Z,25.27
2023-01-21T15:36:28.611Z,25.90
2023-01-21T15:39:02.332Z,25.10
2023-01-21T15:41:44.579Z,27.60
2023-01-21T15:44:32.981Z,28.27
2023-01-21T15:47:13.979Z,29.83
2023-01-21T15:49:56.793Z,29.47
2023-01-21T15:52:36.795Z,28.97
2023-01-21T15:55:26.557Z,27.50
2023-01-21T15:58:06.750Z,27.20
2023-01-21T16:00:38.877Z,26.03
2023-01-21T16:03:21.026Z,30.60
2023-01-21T16:05:58.347Z,28.40
2023-01-21T16:08:40.827Z,30.73
2023-01-21T16:11:31.216Z,30.17
2023-01-21T16:14:14.356Z,26.87
2023-01-21T16:16:53.499Z,32.20
2023-01-21T16:19:27.519Z,32.57
2023-01-21T16:21:59.572Z,32.53
2023-01-21T16:24:29.655Z,29.67
2023-01-21T16:27:17.400Z,28.47
2023-01-21T16:29:45.072Z,28.40
2023-01-21T16:32:17.646Z,30.63
2023-01-21T16:34:47.517Z,30.53
2023-01-21T16:37:16.865Z,31.33
2023-01-21T16:39:45.254Z,28.90
2023-01-21T16:42:25.552Z,30.97
2023-01-21T16:44:53.901Z,31.77
2023-01-21T16:47:25.747Z,26.97
2023-01-21T16:49:54.897Z,29.70
2023-01-21T16:52:24.397Z,34.00
2023-01-21T16:54:54.020Z,30.27
2023-01-21T16:57:25.758Z,30.50
2023-01-21T16:59:57.873Z,26.17
2023-01-21T17:02:30.690Z,26.97
2023-01-21T17:05:02.139Z,28.13
2023-01-21T17:07:33.443Z,24.53
2023-01-21T17:10:05.468Z,25.63
2023-01-21T17:12:36.235Z,24.73
2023-01-21T17:15:15.420Z,21.87
2023-01-21T17:17:43.433Z,23.33
2023-01-21T17:20:34.892Z,26.03
2023-01-21T17:23:04.754Z,30.67
2023-01-21T17:25:32.618Z,24.23
2023-01-21T17:28:00.233Z,24.53
2023-01-21T17:30:31.434Z,26.47
2023-01-21T17:33:00.888Z,22.33
2023-01-21T17:35:32.013Z,29.97
2023-01-21T17:38:02.754Z,22.60
2023-01-21T17:40:33.288Z,30.63
2023-01-21T17:43:11.859Z,23.03
2023-01-21T17:45:45.313Z,27.07
2023-01-21T17:48:23.270Z,25.17
2023-01-21T17:50:51.149Z,22.27
2023-01-21T17:53:23.428Z,25.77
2023-01-21T17:55:58.525Z,23.43
2023-01-21T17:58:51.827Z,25.10
2023-01-21T18:01:21.291Z,23.67
2023-01-21T18:03:49.035Z,24.07
2023-01-21T18:06:20.032Z,22.27
2023-01-21T18:08:50.820Z,24.25
2023-01-21T18:11:18.602Z,21.97
2023-01-21T18:13:46.218Z,27.30
2023-01-21T18:16:14.113Z,29.33
2023-01-21T18:18:42.022Z,24.17
2023-01-21T18:21:18.153Z,26.17
2023-01-21T18:23:45.840Z,25.87
2023-01-21T18:26:20.968Z,18.77
2023-01-21T18:28:48.537Z,21.33
2023-01-21T18:31:16.365Z,24.67
2023-01-21T18:33:44.126Z,22.80
2023-01-21T18:36:12.185Z,21.67
2023-01-21T18:38:39.844Z,21.23
2023-01-21T18:41:08.802Z,19.97
2023-01-21T18:43:37.784Z,22.60
2023-01-21T18:46:10.184Z,21.87
2023-01-21T18:48:37.902Z,19.13
2023-01-21T18:51:05.813Z,18.10
2023-01-21T18:53:34.626Z,16.10
2023-01-21T18:56:06.104Z,18.47
2023-01-21T18:58:33.933Z,18.80
2023-01-21T19:01:13.921Z,16.87
2023-01-21T19:03:48.670Z,19.70
2023-01-21T19:06:17.487Z,17.80
2023-01-21T19:08:48.397Z,14.53
2023-01-21T19:11:17.910Z,20.23
2023-01-21T19:13:45.634Z,24.27
2023-01-21T19:16:18.115Z,34.30
2023-01-21T19:18:46.504Z,16.33
2023-01-21T19:21:14.438Z,14.40
2023-01-21T19:23:42.262Z,13.00
2023-01-21T19:26:13.919Z,17.53
2023-01-21T19:28:42.063Z,15.13
2023-01-21T19:31:09.845Z,18.60
2023-01-21T19:33:40.826Z,11.90
2023-01-21T19:36:14.925Z,13.17
2023-01-21T19:38:44.123Z,14.20
2023-01-21T19:41:11.814Z,13.23
2023-01-21T19:43:39.595Z,14.00
2023-01-21T19:46:10.980Z,12.60
2023-01-21T19:48:40.795Z,11.43
2023-01-21T19:51:09.010Z,8.60
2023-01-21T19:53:37.141Z,14.73
2023-01-21T19:56:06.260Z,10.37
2023-01-21T19:58:34.204Z,11.80
2023-01-21T20:01:02.183Z,11.93
2023-01-21T20:03:30.661Z,11.63
2023-01-21T20:06:03.020Z,8.37
2023-01-21T20:08:32.127Z,10.60
2023-01-21T20:10:59.903Z,9.90
2023-01-21T20:13:31.337Z,10.90
2023-01-21T20:16:03.609Z,12.60
2023-01-21T20:18:32.578Z,13.23
2023-01-21T20:21:01.716Z,10.57
2023-01-21T20:23:32.508Z,8.00
2023-01-21T20:26:01.141Z,10.47
2023-01-21T20:28:36.349Z,9.30
2023-01-21T20:31:06.951Z,11.27
2023-01-21T20:33:36.197Z,12.27
2023-01-21T20:36:17.508Z,12.90
2023-01-21T20:38:46.347Z,10.87
2023-01-21T20:41:14.222Z,8.53
2023-01-21T20:43:42.222Z,10.73
2023-01-21T20:46:13.497Z,11.40
2023-01-21T20:48:43.450Z,9.80
2023-01-21T20:51:12.924Z,9.93
2023-01-21T20:53:41.083Z,13.73
2023-01-21T20:56:18.928Z,9.03
2023-01-21T20:58:47.811Z,8.67
2023-01-21T21:01:17.664Z,12.57
2023-01-21T21:03:45.650Z,10.10
2023-01-21T21:06:15.595Z,16.93
2023-01-21T21:08:43.918Z,10.30
2023-01-21T21:11:11.863Z,10.43
2023-01-21T21:13:39.500Z,11.10
2023-01-21T21:16:17.849Z,12.70
2023-01-21T21:18:45.468Z,10.63
2023-01-21T21:21:14.925Z,11.63
2023-01-21T21:23:46.312Z,10.27
2023-01-21T21:26:18.290Z,14.83
2023-01-21T21:28:46.912Z,11.47
2023-01-21T21:31:15.848Z,8.93
2023-01-21T21:33:44.011Z,13.87
2023-01-21T21:36:15.931Z,10.77
2023-01-21T21:38:44.314Z,7.93
2023-01-21T21:41:36.577Z,8.23
2023-01-21T21:44:05.665Z,10.97
2023-01-21T21:46:51.466Z,13.80
2023-01-21T21:49:19.405Z,9.63
2023-01-21T21:51:48.779Z,7.70
2023-01-21T21:54:18.162Z,8.40
2023-01-21T21:56:46.101Z,8.43
2023-01-21T21:59:14.621Z,10.77
2023-01-21T22:01:43.240Z,9.23
2023-01-21T22:04:11.230Z,7.43
2023-01-21T22:06:39.770Z,9.23
2023-01-21T22:09:11.098Z,9.60
2023-01-21T22:11:38.925Z,9.63
2023-01-21T22:14:06.649Z,11.07
2023-01-21T22:16:34.859Z,8.07
2023-01-21T22:19:02.644Z,9.23
2023-01-21T22:21:32.821Z,10.33
2023-01-21T22:24:00.862Z,9.30
2023-01-21T22:26:30.511Z,8.73
2023-01-21T22:28:58.342Z,12.57
2023-01-21T22:31:28.821Z,8.70
2023-01-21T22:33:57.208Z,9.57
2023-01-21T22:36:27.250Z,11.57
2023-01-21T22:38:55.746Z,13.83
2023-01-21T22:41:24.996Z,8.90
2023-01-21T22:43:54.304Z,10.67
2023-01-21T22:46:24.291Z,11.10
2023-01-21T22:48:52.156Z,11.00
2023-01-21T22:51:21.323Z,8.03
2023-01-21T22:53:49.764Z,9.63
2023-01-21T22:56:19.232Z,10.83
2023-01-21T22:58:47.460Z,12.60
2023-01-21T23:01:25.095Z,10.40
2023-01-21T23:03:53.553Z,11.00
2023-01-21T23:06:21.873Z,11.40
2023-01-21T23:08:49.916Z,8.73
2023-01-21T23:11:19.580Z,12.13
2023-01-21T23:13:50.026Z,10.73
2023-01-21T23:16:20.898Z,8.20
2023-01-21T23:18:50.707Z,10.73
2023-01-21T23:21:20.767Z,11.93
2023-01-21T23:23:48.512Z,9.53
2023-01-21T23:26:18.984Z,15.50
2023-01-21T23:28:47.155Z,9.43
2023-01-21T23:31:17.415Z,9.63
2023-01-21T23:33:45.314Z,15.47
2023-01-21T23:36:14.953Z,9.70
2023-01-21T23:38:42.981Z,11.67
2023-01-21T23:41:12.040Z,10.13
2023-01-21T23:43:39.845Z,9.80
2023-01-21T23:46:08.647Z,11.57
2023-01-21T23:48:36.416Z,10.70
2023-01-21T23:51:05.402Z,11.37
2023-01-21T23:53:35.519Z,8.50
2023-01-21T23:56:08.344Z,13.50
2023-01-21T23:58:36.023Z,11.60
